sensor_id;sensor_type;location;lat;lon;timestamp;pressure;altitude;pressure_sealevel;temperature;humidity
64668;BME280;51077;42.716;23.344;2023-02-28T00:00:16;95814.16;;;11.33;56.27
64668;BME280;51077;42.716;23.344;2023-02-28T00:02:42;95816.38;;;11.35;56.17
64668;BME280;51077;42.716;23.344;2023-02-28T00:05:10;95821.16;;;11.35;56.16
64668;BME280;51077;42.716;23.344;2023-02-28T00:07:36;95828.66;;;11.34;56.27
64668;BME280;51077;42.716;23.344;2023-02-28T00:10:03;95837.63;;;11.35;56.35
64668;BME280;51077;42.716;23.344;2023-02-28T00:12:29;95837.63;;;11.35;56.37
64668;BME280;51077;42.716;23.344;2023-02-28T00:14:54;95831.38;;;11.34;56.29
64668;BME280;51077;42.716;23.344;2023-02-28T00:17:20;95825.91;;;11.34;56.62
64668;BME280;51077;42.716;23.344;2023-02-28T00:19:50;95830.66;;;11.33;56.45
64668;BME280;51077;42.716;23.344;2023-02-28T00:22:17;95849.13;;;11.33;56.40
64668;BME280;51077;42.716;23.344;2023-02-28T00:24:43;95855.88;;;11.32;56.39
64668;BME280;51077;42.716;23.344;2023-02-28T00:27:09;95858.63;;;11.32;56.21
64668;BME280;51077;42.716;23.344;2023-02-28T00:29:34;95846.38;;;11.33;56.39
64668;BME280;51077;42.716;23.344;2023-02-28T00:32:00;95854.63;;;11.33;56.47
64668;BME280;51077;42.716;23.344;2023-02-28T00:34:26;95858.13;;;11.33;56.41
64668;BME280;51077;42.716;23.344;2023-02-28T00:36:51;95847.88;;;11.34;56.33
64668;BME280;51077;42.716;23.344;2023-02-28T00:39:17;95849.38;;;11.35;56.47
64668;BME280;51077;42.716;23.344;2023-02-28T00:41:42;95854.88;;;11.35;56.49
64668;BME280;51077;42.716;23.344;2023-02-28T00:44:08;95853.38;;;11.34;56.50
64668;BME280;51077;42.716;23.344;2023-02-28T00:46:33;95851.88;;;11.33;56.52
64668;BME280;51077;42.716;23.344;2023-02-28T00:48:59;95844.13;;;11.31;56.23
64668;BME280;51077;42.716;23.344;2023-02-28T00:51:24;95847.66;;;11.32;56.48
64668;BME280;51077;42.716;23.344;2023-02-28T00:53:49;95834.91;;;11.29;56.15
64668;BME280;51077;42.716;23.344;2023-02-28T00:56:15;95830.91;;;11.30;56.16
64668;BME280;51077;42.716;23.344;2023-02-28T00:58:40;95829.88;;;11.27;56.47
64668;BME280;51077;42.716;23.344;2023-02-28T01:01:06;95839.91;;;11.25;56.27
64668;BME280;51077;42.716;23.344;2023-02-28T01:03:32;95828.66;;;11.23;56.18
64668;BME280;51077;42.716;23.344;2023-02-28T01:05:57;95830.91;;;11.19;56.24
64668;BME280;51077;42.716;23.344;2023-02-28T01:08:23;95833.19;;;11.15;56.28
64668;BME280;51077;42.716;23.344;2023-02-28T01:10:49;95835.66;;;11.13;56.58
64668;BME280;51077;42.716;23.344;2023-02-28T01:13:15;95837.91;;;11.08;56.56
64668;BME280;51077;42.716;23.344;2023-02-28T01:15:44;95839.44;;;11.04;56.65
64668;BME280;51077;42.716;23.344;2023-02-28T01:18:10;95818.44;;;11.01;56.62
64668;BME280;51077;42.716;23.344;2023-02-28T01:20:38;95819.94;;;10.96;56.75
64668;BME280;51077;42.716;23.344;2023-02-28T01:23:04;95826.94;;;10.92;56.58
64668;BME280;51077;42.716;23.344;2023-02-28T01:25:29;95840.19;;;10.88;56.88
64668;BME280;51077;42.716;23.344;2023-02-28T01:27:55;95834.94;;;10.84;56.84
64668;BME280;51077;42.716;23.344;2023-02-28T01:30:20;95828.44;;;10.81;56.89
64668;BME280;51077;42.716;23.344;2023-02-28T01:32:46;95831.44;;;10.78;57.03
64668;BME280;51077;42.716;23.344;2023-02-28T01:35:11;95828.47;;;10.76;57.00
64668;BME280;51077;42.716;23.344;2023-02-28T01:37:37;95832.19;;;10.73;56.94
64668;BME280;51077;42.716;23.344;2023-02-28T01:40:03;95825.69;;;10.70;57.21
64668;BME280;51077;42.716;23.344;2023-02-28T01:42:28;95828.19;;;10.68;57.00
64668;BME280;51077;42.716;23.344;2023-02-28T01:45:25;95838.16;;;10.66;57.14
64668;BME280;51077;42.716;23.344;2023-02-28T01:47:48;95838.91;;;10.61;57.32
64668;BME280;51077;42.716;23.344;2023-02-28T01:50:19;95822.22;;;10.59;57.25
64668;BME280;51077;42.716;23.344;2023-02-28T01:52:47;95833.44;;;10.55;57.38
64668;BME280;51077;42.716;23.344;2023-02-28T01:55:14;95834.41;;;10.52;57.21
64668;BME280;51077;42.716;23.344;2023-02-28T01:57:46;95836.41;;;10.51;57.27
64668;BME280;51077;42.716;23.344;2023-02-28T02:00:16;95833.44;;;10.49;57.22
64668;BME280;51077;42.716;23.344;2023-02-28T02:02:43;95838.94;;;10.49;57.23
64668;BME280;51077;42.716;23.344;2023-02-28T02:05:14;95834.66;;;10.48;57.47
64668;BME280;51077;42.716;23.344;2023-02-28T02:07:42;95840.66;;;10.47;57.39
64668;BME280;51077;42.716;23.344;2023-02-28T02:10:15;95828.94;;;10.46;57.37
64668;BME280;51077;42.716;23.344;2023-02-28T02:15:16;95837.41;;;10.43;57.35
64668;BME280;51077;42.716;23.344;2023-02-28T02:17:45;95829.69;;;10.41;57.29
64668;BME280;51077;42.716;23.344;2023-02-28T02:41:54;95842.06;;;10.20;57.56
64668;BME280;51077;42.716;23.344;2023-02-28T02:44:24;95835.09;;;10.19;57.75
64668;BME280;51077;42.716;23.344;2023-02-28T02:46:55;95847.56;;;10.20;57.56
64668;BME280;51077;42.716;23.344;2023-02-28T02:49:31;95852.31;;;10.19;57.55
64668;BME280;51077;42.716;23.344;2023-02-28T02:52:03;95846.06;;;10.19;57.62
64668;BME280;51077;42.716;23.344;2023-02-28T02:54:38;95851.06;;;10.20;57.56
64668;BME280;51077;42.716;23.344;2023-02-28T03:00:09;95843.31;;;10.19;57.55
64668;BME280;51077;42.716;23.344;2023-02-28T03:02:37;95849.06;;;10.21;57.51
64668;BME280;51077;42.716;23.344;2023-02-28T03:05:28;95851.81;;;10.21;57.37
64668;BME280;51077;42.716;23.344;2023-02-28T03:07:56;95857.03;;;10.19;57.48
64668;BME280;51077;42.716;23.344;2023-02-28T03:10:31;95864.78;;;10.20;57.39
64668;BME280;51077;42.716;23.344;2023-02-28T03:23:38;95881.72;;;10.19;57.24
64668;BME280;51077;42.716;23.344;2023-02-28T03:26:10;95878.47;;;10.20;57.45
64668;BME280;51077;42.716;23.344;2023-02-28T03:28:41;95885.75;;;10.23;57.25
64668;BME280;51077;42.716;23.344;2023-02-28T03:31:25;95895.94;;;10.23;57.31
64668;BME280;51077;42.716;23.344;2023-02-28T03:36:35;95892.97;;;10.26;57.23
64668;BME280;51077;42.716;23.344;2023-02-28T03:39:11;95896.00;;;10.28;57.09
64668;BME280;51077;42.716;23.344;2023-02-28T03:41:43;95902.97;;;10.29;57.09
64668;BME280;51077;42.716;23.344;2023-02-28T03:44:16;95895.50;;;10.30;56.99
64668;BME280;51077;42.716;23.344;2023-02-28T03:46:51;95896.50;;;10.32;57.07
64668;BME280;51077;42.716;23.344;2023-02-28T03:49:22;95902.97;;;10.29;57.03
64668;BME280;51077;42.716;23.344;2023-02-28T03:51:50;95899.25;;;10.32;56.87
64668;BME280;51077;42.716;23.344;2023-02-28T03:54:24;95904.25;;;10.34;56.88
64668;BME280;51077;42.716;23.344;2023-02-28T03:57:03;95909.50;;;10.38;56.98
64668;BME280;51077;42.716;23.344;2023-02-28T03:59:36;95906.25;;;10.39;56.88
64668;BME280;51077;42.716;23.344;2023-02-28T04:02:02;95903.78;;;10.41;56.77
64668;BME280;51077;42.716;23.344;2023-02-28T04:04:28;95910.00;;;10.42;56.80
64668;BME280;51077;42.716;23.344;2023-02-28T04:07:01;95909.03;;;10.45;56.86
64668;BME280;51077;42.716;23.344;2023-02-28T04:09:27;95907.78;;;10.46;56.66
64668;BME280;51077;42.716;23.344;2023-02-28T04:11:53;95905.78;;;10.46;56.81
64668;BME280;51077;42.716;23.344;2023-02-28T04:14:21;95908.53;;;10.46;56.84
64668;BME280;51077;42.716;23.344;2023-02-28T04:16:46;95904.78;;;10.49;56.79
64668;BME280;51077;42.716;23.344;2023-02-28T04:19:13;95895.31;;;10.50;56.60
64668;BME280;51077;42.716;23.344;2023-02-28T04:21:44;95898.28;;;10.52;56.62
64668;BME280;51077;42.716;23.344;2023-02-28T04:24:12;95899.03;;;10.53;56.64
64668;BME280;51077;42.716;23.344;2023-02-28T04:26:43;95904.06;;;10.54;56.54
64668;BME280;51077;42.716;23.344;2023-02-28T04:29:11;95907.53;;;10.55;56.52
64668;BME280;51077;42.716;23.344;2023-02-28T04:31:36;95909.53;;;10.54;56.48
64668;BME280;51077;42.716;23.344;2023-02-28T04:34:03;95907.53;;;10.55;56.52
64668;BME280;51077;42.716;23.344;2023-02-28T04:36:29;95906.78;;;10.54;56.52
64668;BME280;51077;42.716;23.344;2023-02-28T04:38:54;95900.56;;;10.54;56.35
64668;BME280;51077;42.716;23.344;2023-02-28T04:41:20;95908.03;;;10.53;56.41
64668;BME280;51077;42.716;23.344;2023-02-28T04:43:46;95911.28;;;10.52;56.64
64668;BME280;51077;42.716;23.344;2023-02-28T04:46:12;95915.25;;;10.51;56.31
64668;BME280;51077;42.716;23.344;2023-02-28T04:48:39;95911.78;;;10.50;56.31
64668;BME280;51077;42.716;23.344;2023-02-28T04:51:08;95922.75;;;10.50;56.58
64668;BME280;51077;42.716;23.344;2023-02-28T04:53:34;95927.50;;;10.50;56.47
64668;BME280;51077;42.716;23.344;2023-02-28T04:56:00;95932.97;;;10.50;56.50
64668;BME280;51077;42.716;23.344;2023-02-28T04:58:26;95933.47;;;10.48;56.55
64668;BME280;51077;42.716;23.344;2023-02-28T05:00:53;95926.47;;;10.47;56.63
64668;BME280;51077;42.716;23.344;2023-02-28T05:03:20;95934.72;;;10.47;56.57
64668;BME280;51077;42.716;23.344;2023-02-28T05:05:46;95923.72;;;10.47;56.69
64668;BME280;51077;42.716;23.344;2023-02-28T05:08:12;95926.47;;;10.47;56.50
64668;BME280;51077;42.716;23.344;2023-02-28T05:10:37;95921.00;;;10.47;56.62
64668;BME280;51077;42.716;23.344;2023-02-28T05:13:02;95927.72;;;10.46;56.49
64668;BME280;51077;42.716;23.344;2023-02-28T05:15:28;95933.47;;;10.48;56.77
64668;BME280;51077;42.716;23.344;2023-02-28T05:17:53;95933.97;;;10.47;56.78
64668;BME280;51077;42.716;23.344;2023-02-28T05:20:19;95929.22;;;10.47;56.62
64668;BME280;51077;42.716;23.344;2023-02-28T05:22:46;95934.72;;;10.47;56.65
64668;BME280;51077;42.716;23.344;2023-02-28T05:25:20;95945.19;;;10.49;56.69
64668;BME280;51077;42.716;23.344;2023-02-28T05:27:47;95957.69;;;10.50;56.59
64668;BME280;51077;42.716;23.344;2023-02-28T05:30:12;95963.16;;;10.50;56.68
64668;BME280;51077;42.716;23.344;2023-02-28T05:32:39;95965.91;;;10.50;56.52
64668;BME280;51077;42.716;23.344;2023-02-28T05:35:09;95954.19;;;10.49;56.77
64668;BME280;51077;42.716;23.344;2023-02-28T05:37:34;95951.69;;;10.51;56.75
64668;BME280;51077;42.716;23.344;2023-02-28T05:40:01;95957.94;;;10.52;56.80
64668;BME280;51077;42.716;23.344;2023-02-28T05:42:26;95955.19;;;10.52;56.71
64668;BME280;51077;42.716;23.344;2023-02-28T05:44:51;95955.19;;;10.52;56.76
64668;BME280;51077;42.716;23.344;2023-02-28T05:47:17;95965.66;;;10.53;56.75
64668;BME280;51077;42.716;23.344;2023-02-28T05:49:42;95968.66;;;10.55;56.73
64668;BME280;51077;42.716;23.344;2023-02-28T05:52:08;95970.91;;;10.57;56.69
64668;BME280;51077;42.716;23.344;2023-02-28T05:54:33;95961.47;;;10.58;56.59
64668;BME280;51077;42.716;23.344;2023-02-28T05:56:58;95975.94;;;10.59;56.84
64668;BME280;51077;42.716;23.344;2023-02-28T05:59:24;95967.69;;;10.59;56.84
64668;BME280;51077;42.716;23.344;2023-02-28T06:01:49;95975.94;;;10.59;56.79
64668;BME280;51077;42.716;23.344;2023-02-28T06:04:17;95981.16;;;10.62;56.66
64668;BME280;51077;42.716;23.344;2023-02-28T06:06:45;95976.44;;;10.63;56.64
64668;BME280;51077;42.716;23.344;2023-02-28T06:09:11;95970.44;;;10.64;56.52
64668;BME280;51077;42.716;23.344;2023-02-28T06:11:36;95983.66;;;10.66;56.53
64668;BME280;51077;42.716;23.344;2023-02-28T06:14:03;95972.69;;;10.66;56.48
64668;BME280;51077;42.716;23.344;2023-02-28T06:16:32;95975.94;;;10.70;56.81
64668;BME280;51077;42.716;23.344;2023-02-28T06:18:59;95978.97;;;10.72;56.67
64668;BME280;51077;42.716;23.344;2023-02-28T06:21:26;95972.97;;;10.73;56.52
64668;BME280;51077;42.716;23.344;2023-02-28T06:23:52;95975.19;;;10.75;56.47
64668;BME280;51077;42.716;23.344;2023-02-28T06:26:19;95973.97;;;10.76;56.45
64668;BME280;51077;42.716;23.344;2023-02-28T06:28:44;95969.97;;;10.77;56.60
64668;BME280;51077;42.716;23.344;2023-02-28T06:31:12;95977.22;;;10.80;56.48
64668;BME280;51077;42.716;23.344;2023-02-28T06:33:38;95970.72;;;10.83;56.35
64668;BME280;51077;42.716;23.344;2023-02-28T06:36:05;95988.22;;;10.86;56.48
64668;BME280;51077;42.716;23.344;2023-02-28T06:38:31;95992.22;;;10.85;56.49
64668;BME280;51077;42.716;23.344;2023-02-28T06:40:58;95993.97;;;10.88;56.31
64668;BME280;51077;42.716;23.344;2023-02-28T06:43:25;95990.72;;;10.89;56.39
64668;BME280;51077;42.716;23.344;2023-02-28T06:45:54;95995.72;;;10.91;56.43
64668;BME280;51077;42.716;23.344;2023-02-28T06:48:20;95993.25;;;10.93;56.31
64668;BME280;51077;42.716;23.344;2023-02-28T06:50:45;95995.50;;;10.94;56.29
64668;BME280;51077;42.716;23.344;2023-02-28T06:53:12;95996.22;;;10.95;56.17
64668;BME280;51077;42.716;23.344;2023-02-28T06:55:38;95990.22;;;10.96;56.30
64668;BME280;51077;42.716;23.344;2023-02-28T06:58:04;95989.50;;;11.01;56.30
64668;BME280;51077;42.716;23.344;2023-02-28T07:00:42;95989.25;;;11.05;55.99
64668;BME280;51077;42.716;23.344;2023-02-28T07:03:09;96000.00;;;11.08;56.17
64668;BME280;51077;42.716;23.344;2023-02-28T07:05:35;95996.00;;;11.10;56.05
64668;BME280;51077;42.716;23.344;2023-02-28T07:08:01;96002.00;;;11.14;55.99
64668;BME280;51077;42.716;23.344;2023-02-28T07:10:27;95991.28;;;11.16;55.85
64668;BME280;51077;42.716;23.344;2023-02-28T07:12:52;95993.00;;;11.19;55.98
64668;BME280;51077;42.716;23.344;2023-02-28T07:15:17;95993.28;;;11.21;55.74
64668;BME280;51077;42.716;23.344;2023-02-28T07:17:43;95994.28;;;11.23;55.69
64668;BME280;51077;42.716;23.344;2023-02-28T07:20:09;95988.28;;;11.25;55.72
64668;BME280;51077;42.716;23.344;2023-02-28T07:22:34;95990.53;;;11.26;55.49
64668;BME280;51077;42.716;23.344;2023-02-28T07:24:59;95996.78;;;11.27;55.55
64668;BME280;51077;42.716;23.344;2023-02-28T07:27:25;95996.28;;;11.28;55.66
64668;BME280;51077;42.716;23.344;2023-02-28T07:29:51;95995.03;;;11.29;55.66
64668;BME280;51077;42.716;23.344;2023-02-28T07:32:17;96002.03;;;11.30;55.64
64668;BME280;51077;42.716;23.344;2023-02-28T07:34:44;95999.53;;;11.32;55.72
64668;BME280;51077;42.716;23.344;2023-02-28T07:37:09;95997.78;;;11.35;55.61
64668;BME280;51077;42.716;23.344;2023-02-28T07:39:35;95994.03;;;11.38;55.54
64668;BME280;51077;42.716;23.344;2023-02-28T07:42:04;95990.28;;;11.41;55.62
64668;BME280;51077;42.716;23.344;2023-02-28T07:44:29;96002.28;;;11.44;55.45
64668;BME280;51077;42.716;23.344;2023-02-28T07:46:55;95999.03;;;11.45;55.48
64668;BME280;51077;42.716;23.344;2023-02-28T07:49:20;95986.78;;;11.46;55.33
64668;BME280;51077;42.716;23.344;2023-02-28T07:51:46;95998.03;;;11.48;55.34
64668;BME280;51077;42.716;23.344;2023-02-28T07:54:11;95994.78;;;11.50;55.16
64668;BME280;51077;42.716;23.344;2023-02-28T07:56:36;95989.53;;;11.52;55.24
64668;BME280;51077;42.716;23.344;2023-02-28T07:59:02;95992.56;;;11.54;55.08
64668;BME280;51077;42.716;23.344;2023-02-28T08:01:27;95991.53;;;11.57;55.29
64668;BME280;51077;42.716;23.344;2023-02-28T08:03:53;95984.03;;;11.63;55.26
64668;BME280;51077;42.716;23.344;2023-02-28T08:06:22;95982.28;;;11.71;54.95
64668;BME280;51077;42.716;23.344;2023-02-28T08:08:48;95984.25;;;11.82;54.73
64668;BME280;51077;42.716;23.344;2023-02-28T08:11:14;95988.25;;;11.92;54.53
64668;BME280;51077;42.716;23.344;2023-02-28T08:13:41;95985.75;;;12.05;54.67
64668;BME280;51077;42.716;23.344;2023-02-28T08:16:09;95993.97;;;12.17;54.34
64668;BME280;51077;42.716;23.344;2023-02-28T08:18:35;95990.16;;;12.31;53.97
64668;BME280;51077;42.716;23.344;2023-02-28T08:21:08;95991.63;;;12.43;53.85
64668;BME280;51077;42.716;23.344;2023-02-28T08:23:34;95992.84;;;12.53;53.65
64668;BME280;51077;42.716;23.344;2023-02-28T08:26:00;95996.31;;;12.65;53.44
64668;BME280;51077;42.716;23.344;2023-02-28T08:28:25;95991.25;;;12.75;53.30
64668;BME280;51077;42.716;23.344;2023-02-28T08:30:51;95998.47;;;12.83;52.94
64668;BME280;51077;42.716;23.344;2023-02-28T08:33:16;95997.94;;;12.91;52.92
64668;BME280;51077;42.716;23.344;2023-02-28T08:35:41;95993.38;;;12.99;52.90
64668;BME280;51077;42.716;23.344;2023-02-28T08:38:07;96001.34;;;13.08;52.76
64668;BME280;51077;42.716;23.344;2023-02-28T08:40:32;95998.78;;;13.16;52.59
64668;BME280;51077;42.716;23.344;2023-02-28T08:42:58;95996.25;;;13.23;52.75
64668;BME280;51077;42.716;23.344;2023-02-28T08:45:24;95994.22;;;13.29;52.50
64668;BME280;51077;42.716;23.344;2023-02-28T08:47:50;96003.44;;;13.38;52.48
64668;BME280;51077;42.716;23.344;2023-02-28T08:50:17;96004.13;;;13.44;52.31
64668;BME280;51077;42.716;23.344;2023-02-28T08:52:43;95997.81;;;13.49;52.26
64668;BME280;51077;42.716;23.344;2023-02-28T08:55:09;95994.72;;;13.58;52.12
64668;BME280;51077;42.716;23.344;2023-02-28T08:57:35;95993.44;;;13.65;52.22
64668;BME280;51077;42.716;23.344;2023-02-28T09:00:00;96000.63;;;13.73;52.08
64668;BME280;51077;42.716;23.344;2023-02-28T09:02:30;95997.31;;;13.80;51.92
64668;BME280;51077;42.716;23.344;2023-02-28T09:04:56;95998.22;;;13.89;51.82
64668;BME280;51077;42.716;23.344;2023-02-28T09:07:21;96002.44;;;13.95;52.36
64668;BME280;51077;42.716;23.344;2023-02-28T09:09:47;95994.84;;;14.01;52.46
64668;BME280;51077;42.716;23.344;2023-02-28T09:12:27;95989.78;;;14.05;52.78
64668;BME280;51077;42.716;23.344;2023-02-28T09:14:53;95986.75;;;14.09;52.84
64668;BME280;51077;42.716;23.344;2023-02-28T09:17:19;95990.72;;;14.14;53.00
64668;BME280;51077;42.716;23.344;2023-02-28T09:19:45;95992.97;;;14.15;53.22
64668;BME280;51077;42.716;23.344;2023-02-28T09:22:12;95981.69;;;14.13;53.20
64668;BME280;51077;42.716;23.344;2023-02-28T09:24:38;95983.91;;;14.15;53.27
64668;BME280;51077;42.716;23.344;2023-02-28T09:27:04;95990.13;;;14.21;53.51
64668;BME280;51077;42.716;23.344;2023-02-28T09:29:31;95985.25;;;14.32;53.11
64668;BME280;51077;42.716;23.344;2023-02-28T09:31:57;95991.16;;;14.42;53.06
64668;BME280;51077;42.716;23.344;2023-02-28T09:34:26;95977.28;;;14.48;52.91
64668;BME280;51077;42.716;23.344;2023-02-28T09:36:52;95989.25;;;14.56;52.75
64668;BME280;51077;42.716;23.344;2023-02-28T09:39:21;95981.34;;;14.66;52.78
64668;BME280;51077;42.716;23.344;2023-02-28T09:41:49;95980.03;;;14.72;52.71
64668;BME280;51077;42.716;23.344;2023-02-28T09:44:28;95983.75;;;14.75;52.42
64668;BME280;51077;42.716;23.344;2023-02-28T09:49:38;95983.16;;;14.82;52.27
64668;BME280;51077;42.716;23.344;2023-02-28T09:52:17;95979.56;;;14.87;52.16
64668;BME280;51077;42.716;23.344;2023-02-28T09:54:44;95980.69;;;14.97;51.97
64668;BME280;51077;42.716;23.344;2023-02-28T10:00:17;95965.31;;;15.34;51.12
64668;BME280;51077;42.716;23.344;2023-02-28T10:03:04;95959.44;;;15.56;50.50
64668;BME280;51077;42.716;23.344;2023-02-28T10:05:43;95960.63;;;15.61;50.33
64668;BME280;51077;42.716;23.344;2023-02-28T10:08:27;95958.06;;;15.63;50.19
64668;BME280;51077;42.716;23.344;2023-02-28T10:10:57;95962.25;;;15.70;50.13
64668;BME280;51077;42.716;23.344;2023-02-28T10:16:24;95959.81;;;15.79;49.59
64668;BME280;51077;42.716;23.344;2023-02-28T10:18:54;95962.50;;;15.85;49.46
64668;BME280;51077;42.716;23.344;2023-02-28T10:21:35;95952.06;;;15.91;49.12
64668;BME280;51077;42.716;23.344;2023-02-28T10:24:49;95943.16;;;15.98;48.97
64668;BME280;51077;42.716;23.344;2023-02-28T10:26:52;95950.28;;;16.07;48.63
64668;BME280;51077;42.716;23.344;2023-02-28T10:29:22;95948.88;;;16.14;48.39
64668;BME280;51077;42.716;23.344;2023-02-28T10:31:47;95936.88;;;16.24;48.28
64668;BME280;51077;42.716;23.344;2023-02-28T10:34:12;95944.00;;;16.33;47.82
64668;BME280;51077;42.716;23.344;2023-02-28T10:36:39;95935.66;;;16.46;47.50
64668;BME280;51077;42.716;23.344;2023-02-28T10:39:34;95932.13;;;16.72;46.64
64668;BME280;51077;42.716;23.344;2023-02-28T10:42:00;95927.09;;;17.05;46.31
64668;BME280;51077;42.716;23.344;2023-02-28T10:44:25;95931.13;;;17.38;45.47
64668;BME280;51077;42.716;23.344;2023-02-28T10:46:51;95906.41;;;17.69;44.76
64668;BME280;51077;42.716;23.344;2023-02-28T10:49:20;95917.25;;;18.08;44.08
64668;BME280;51077;42.716;23.344;2023-02-28T10:51:49;95911.91;;;18.47;43.33
64668;BME280;51077;42.716;23.344;2023-02-28T10:54:43;95903.34;;;18.89;42.73
64668;BME280;51077;42.716;23.344;2023-02-28T10:57:21;95899.16;;;19.26;42.16
64668;BME280;51077;42.716;23.344;2023-02-28T10:59:53;95905.50;;;19.65;41.71
64668;BME280;51077;42.716;23.344;2023-02-28T11:02:33;95892.47;;;20.05;40.70
64668;BME280;51077;42.716;23.344;2023-02-28T11:04:59;95891.25;;;20.39;39.92
64668;BME280;51077;42.716;23.344;2023-02-28T11:07:26;95880.78;;;20.63;39.19
64668;BME280;51077;42.716;23.344;2023-02-28T11:09:54;95899.28;;;20.83;38.35
64668;BME280;51077;42.716;23.344;2023-02-28T11:12:41;95889.34;;;20.97;37.90
64668;BME280;51077;42.716;23.344;2023-02-28T11:15:27;95883.63;;;21.20;37.91
64668;BME280;51077;42.716;23.344;2023-02-28T11:17:59;95883.88;;;21.40;37.63
64668;BME280;51077;42.716;23.344;2023-02-28T11:20:28;95887.41;;;21.40;37.38
64668;BME280;51077;42.716;23.344;2023-02-28T11:22:56;95879.13;;;21.50;36.90
64668;BME280;51077;42.716;23.344;2023-02-28T11:25:38;95868.31;;;21.54;36.66
64668;BME280;51077;42.716;23.344;2023-02-28T11:28:06;95882.22;;;21.62;36.82
64668;BME280;51077;42.716;23.344;2023-02-28T11:31:04;95874.50;;;21.70;36.07
64668;BME280;51077;42.716;23.344;2023-02-28T11:33:59;95876.19;;;21.90;35.82
64668;BME280;51077;42.716;23.344;2023-02-28T11:36:27;95868.16;;;22.12;35.31
64668;BME280;51077;42.716;23.344;2023-02-28T11:38:55;95855.34;;;22.26;35.42
64668;BME280;51077;42.716;23.344;2023-02-28T11:46:54;95880.63;;;22.11;35.06
64668;BME280;51077;42.716;23.344;2023-02-28T12:02:30;95872.75;;;22.51;34.21
64668;BME280;51077;42.716;23.344;2023-02-28T12:05:21;95878.44;;;22.44;34.45
64668;BME280;51077;42.716;23.344;2023-02-28T12:08:02;95868.00;;;22.27;34.50
64668;BME280;51077;42.716;23.344;2023-02-28T12:10:35;95853.22;;;22.17;34.42
64668;BME280;51077;42.716;23.344;2023-02-28T12:15:54;95858.75;;;21.82;34.66
64668;BME280;51077;42.716;23.344;2023-02-28T12:27:07;95863.13;;;21.50;35.11
64668;BME280;51077;42.716;23.344;2023-02-28T12:29:50;95847.63;;;21.32;35.49
64668;BME280;51077;42.716;23.344;2023-02-28T12:32:30;95858.09;;;21.24;35.59
64668;BME280;51077;42.716;23.344;2023-02-28T12:37:44;95855.06;;;21.04;36.09
64668;BME280;51077;42.716;23.344;2023-02-28T12:40:31;95848.31;;;20.82;36.37
64668;BME280;51077;42.716;23.344;2023-02-28T12:43:04;95835.03;;;20.66;36.72
64668;BME280;51077;42.716;23.344;2023-02-28T12:45:42;95828.22;;;20.51;36.66
64668;BME280;51077;42.716;23.344;2023-02-28T12:48:13;95832.16;;;20.33;37.02
64668;BME280;51077;42.716;23.344;2023-02-28T12:50:40;95835.97;;;20.13;37.66
64668;BME280;51077;42.716;23.344;2023-02-28T12:53:11;95846.97;;;19.95;37.85
64668;BME280;51077;42.716;23.344;2023-02-28T12:55:45;95835.69;;;19.70;38.22
64668;BME280;51077;42.716;23.344;2023-02-28T13:09:56;95843.28;;;18.93;39.67
64668;BME280;51077;42.716;23.344;2023-02-28T13:12:22;95836.78;;;18.83;39.91
64668;BME280;51077;42.716;23.344;2023-02-28T13:14:49;95830.81;;;18.71;40.24
64668;BME280;51077;42.716;23.344;2023-02-28T13:17:20;95824.66;;;18.65;40.33
64668;BME280;51077;42.716;23.344;2023-02-28T13:19:55;95842.63;;;18.56;40.45
64668;BME280;51077;42.716;23.344;2023-02-28T13:24:55;95847.91;;;18.31;40.86
64668;BME280;51077;42.716;23.344;2023-02-28T13:27:51;95837.81;;;18.13;41.25
64668;BME280;51077;42.716;23.344;2023-02-28T13:44:07;95827.66;;;17.30;42.58
64668;BME280;51077;42.716;23.344;2023-02-28T13:47:15;95830.38;;;17.22;42.71
64668;BME280;51077;42.716;23.344;2023-02-28T14:00:05;95806.84;;;16.74;43.94
64668;BME280;51077;42.716;23.344;2023-02-28T14:02:49;95811.34;;;16.64;44.23
64668;BME280;51077;42.716;23.344;2023-02-28T14:05:21;95808.81;;;16.52;44.35
64668;BME280;51077;42.716;23.344;2023-02-28T14:07:53;95819.06;;;16.44;44.59
64668;BME280;51077;42.716;23.344;2023-02-28T14:13:12;95814.78;;;16.22;45.04
64668;BME280;51077;42.716;23.344;2023-02-28T14:26:42;95818.16;;;15.68;45.99
64668;BME280;51077;42.716;23.344;2023-02-28T14:34:35;95830.66;;;15.42;46.76
64668;BME280;51077;42.716;23.344;2023-02-28T14:37:03;95824.69;;;15.38;46.92
64668;BME280;51077;42.716;23.344;2023-02-28T14:39:29;95838.09;;;15.34;47.05
64668;BME280;51077;42.716;23.344;2023-02-28T14:41:56;95830.84;;;15.31;47.09
64668;BME280;51077;42.716;23.344;2023-02-28T14:44:28;95827.66;;;15.27;47.27
64668;BME280;51077;42.716;23.344;2023-02-28T14:46:59;95817.88;;;15.26;47.94
64668;BME280;51077;42.716;23.344;2023-02-28T14:49:36;95824.44;;;15.23;48.08
64668;BME280;51077;42.716;23.344;2023-02-28T14:54:32;95826.16;;;15.13;48.15
64668;BME280;51077;42.716;23.344;2023-02-28T14:56:57;95833.03;;;15.06;48.41
64668;BME280;51077;42.716;23.344;2023-02-28T14:59:34;95826.13;;;14.99;48.61
64668;BME280;51077;42.716;23.344;2023-02-28T15:02:24;95835.56;;;14.91;48.78
64668;BME280;51077;42.716;23.344;2023-02-28T15:05:02;95828.41;;;14.82;49.24
64668;BME280;51077;42.716;23.344;2023-02-28T15:07:36;95832.50;;;14.75;49.43
64668;BME280;51077;42.716;23.344;2023-02-28T15:12:32;95821.13;;;14.66;49.57
64668;BME280;51077;42.716;23.344;2023-02-28T15:14:59;95827.25;;;14.58;49.96
64668;BME280;51077;42.716;23.344;2023-02-28T15:17:25;95823.38;;;14.48;50.17
64668;BME280;51077;42.716;23.344;2023-02-28T15:19:52;95825.47;;;14.42;50.31
64668;BME280;51077;42.716;23.344;2023-02-28T15:22:26;95821.28;;;14.36;50.45
64668;BME280;51077;42.716;23.344;2023-02-28T15:24:54;95837.47;;;14.26;50.67